createdAt,value
2018-06-18T00:00:42.451Z,17.54
2018-06-18T00:03:19.942Z,17.49
2018-06-18T00:06:01.949Z,17.47
2018-06-18T00:08:44.323Z,17.44
2018-06-18T00:11:20.118Z,17.39
2018-06-18T00:13:58.904Z,17.38
2018-06-18T00:16:42.775Z,17.39
2018-06-18T00:19:22.935Z,17.39
2018-06-18T00:22:00.826Z,17.33
2018-06-18T00:24:44.914Z,17.29
2018-06-18T00:27:25.328Z,17.28
2018-06-18T00:30:08.533Z,17.24
2018-06-18T00:32:49.647Z,17.32
2018-06-18T00:35:27.878Z,17.32
2018-06-18T00:38:06.739Z,17.27
2018-06-18T00:40:47.755Z,17.25
2018-06-18T00:43:34.771Z,17.27
2018-06-18T00:46:13.103Z,17.24
2018-06-18T00:48:53.730Z,17.29
2018-06-18T00:51:32.746Z,17.26
2018-06-18T00:54:12.873Z,17.26
2018-06-18T00:56:52.865Z,17.22
2018-06-18T00:59:29.382Z,17.16
2018-06-18T01:02:07.736Z,17.14
2018-06-18T01:04:44.630Z,17.09
2018-06-18T01:07:21.524Z,17.00
2018-06-18T01:10:13.626Z,17.04
2018-06-18T01:12:54.928Z,16.98
2018-06-18T01:15:35.881Z,16.99
2018-06-18T01:18:16.440Z,17.00
2018-06-18T01:20:55.277Z,16.99
2018-06-18T01:23:50.147Z,16.95
2018-06-18T01:26:27.646Z,16.87
2018-06-18T01:29:06.154Z,16.87
2018-06-18T01:31:43.756Z,16.85
2018-06-18T01:34:25.921Z,16.82
2018-06-18T01:37:02.586Z,16.78
2018-06-18T01:39:42.915Z,16.76
2018-06-18T01:42:20.908Z,16.70
2018-06-18T01:44:59.749Z,16.64
2018-06-18T01:47:40.950Z,16.59
2018-06-18T01:50:19.584Z,16.56
2018-06-18T01:52:59.922Z,16.51
2018-06-18T01:55:39.659Z,16.47
2018-06-18T01:58:20.497Z,16.43
2018-06-18T02:01:00.818Z,16.43
2018-06-18T02:03:41.356Z,16.39
2018-06-18T02:06:23.763Z,16.42
2018-06-18T02:09:01.132Z,16.40
2018-06-18T02:11:43.120Z,16.43
2018-06-18T02:15:36.396Z,16.38
2018-06-18T02:18:19.423Z,16.33
2018-06-18T02:21:41.989Z,16.31
2018-06-18T02:24:32.683Z,16.25
2018-06-18T02:27:16.516Z,16.16
2018-06-18T02:29:58.999Z,16.21
2018-06-18T02:32:41.374Z,16.21
2018-06-18T02:35:31.233Z,16.16
2018-06-18T02:38:21.312Z,16.21
2018-06-18T02:41:01.780Z,16.26
2018-06-18T02:43:41.925Z,16.21
2018-06-18T02:46:32.902Z,16.21
2018-06-18T02:49:15.830Z,16.18
2018-06-18T02:51:58.620Z,16.09
2018-06-18T02:54:43.526Z,16.03
2018-06-18T02:57:29.928Z,15.95
2018-06-18T03:00:11.452Z,15.95
2018-06-18T03:02:53.330Z,15.86
2018-06-18T03:05:41.808Z,15.85
2018-06-18T03:08:23.809Z,15.82
2018-06-18T03:11:07.482Z,15.75
2018-06-18T03:13:51.139Z,15.68
2018-06-18T03:16:42.979Z,15.62
2018-06-18T03:19:26.563Z,15.64
2018-06-18T03:24:21.093Z,15.68
2018-06-18T03:27:10.913Z,15.70
2018-06-18T03:29:57.396Z,15.65
2018-06-18T03:32:56.707Z,15.63
2018-06-18T03:35:42.201Z,15.62
2018-06-18T03:41:16.375Z,15.57
2018-06-18T03:44:11.256Z,15.56
2018-06-18T03:46:57.851Z,15.54
2018-06-18T03:53:08.645Z,15.54
2018-06-18T03:56:06.757Z,15.60
2018-06-18T04:08:42.714Z,15.71
2018-06-18T04:14:55.628Z,15.80
2018-06-18T04:18:33.117Z,15.87
2018-06-18T04:21:16.697Z,16.05
2018-06-18T04:24:23.425Z,16.00
2018-06-18T04:27:16.211Z,15.95
2018-06-18T04:30:21.850Z,15.96
2018-06-18T04:32:57.661Z,16.11
2018-06-18T04:35:34.333Z,16.26
2018-06-18T04:38:11.771Z,16.39
2018-06-18T04:40:47.407Z,16.65
2018-06-18T04:43:30.428Z,16.87
2018-06-18T04:46:15.599Z,17.05
2018-06-18T04:48:56.305Z,17.22
2018-06-18T04:51:33.418Z,17.37
2018-06-18T04:54:10.356Z,16.96
2018-06-18T04:56:49.412Z,16.78
2018-06-18T04:59:26.133Z,16.84
2018-06-18T05:02:03.414Z,16.97
2018-06-18T05:04:40.192Z,17.13
2018-06-18T05:07:16.381Z,17.21
2018-06-18T05:10:00.192Z,17.09
2018-06-18T05:12:36.336Z,17.22
2018-06-18T05:15:12.449Z,17.01
2018-06-18T05:17:49.709Z,17.12
2018-06-18T05:20:26.963Z,17.42
2018-06-18T05:23:02.594Z,17.31
2018-06-18T05:25:41.749Z,17.34
2018-06-18T05:28:18.964Z,17.32
2018-06-18T05:30:55.233Z,17.35
2018-06-18T05:33:32.032Z,17.41
2018-06-18T05:39:19.707Z,17.45
2018-06-18T05:42:06.959Z,17.40
2018-06-18T05:44:43.800Z,17.58
2018-06-18T05:47:19.486Z,17.13
2018-06-18T05:49:55.870Z,17.04
2018-06-18T05:52:32.149Z,17.25
2018-06-18T05:55:08.964Z,17.23
2018-06-18T05:57:44.587Z,17.15
2018-06-18T06:00:20.732Z,17.19
2018-06-18T06:02:57.085Z,17.28
2018-06-18T06:05:34.300Z,17.40
2018-06-18T06:08:09.999Z,17.27
2018-06-18T06:10:46.858Z,17.03
2018-06-18T06:13:22.900Z,17.04
2018-06-18T06:16:00.097Z,17.38
2018-06-18T06:18:35.744Z,17.62
2018-06-18T06:21:13.116Z,17.63
2018-06-18T06:23:50.608Z,17.72
2018-06-18T06:26:27.662Z,17.58
2018-06-18T06:29:03.382Z,17.28
2018-06-18T06:31:39.292Z,17.89
2018-06-18T06:34:15.848Z,18.37
2018-06-18T06:36:52.183Z,18.88
2018-06-18T06:39:27.621Z,18.94
2018-06-18T06:42:10.096Z,19.26
2018-06-18T06:44:49.095Z,20.04
2018-06-18T06:47:25.215Z,20.11
2018-06-18T06:50:02.226Z,20.11
2018-06-18T06:52:38.863Z,20.12
2018-06-18T06:55:15.632Z,20.30
2018-06-18T06:57:51.325Z,20.42
2018-06-18T07:00:27.122Z,20.74
2018-06-18T07:03:03.691Z,21.54
2018-06-18T07:05:39.780Z,20.50
2018-06-18T07:08:15.674Z,19.76
2018-06-18T07:10:51.612Z,20.26
2018-06-18T07:13:28.460Z,21.88
2018-06-18T07:16:04.804Z,21.81
2018-06-18T07:18:41.712Z,22.11
2018-06-18T07:21:18.475Z,22.17
2018-06-18T07:23:55.457Z,22.78
2018-06-18T07:26:31.987Z,22.63
2018-06-18T07:29:07.836Z,22.29
2018-06-18T07:31:43.679Z,22.39
2018-06-18T07:34:19.388Z,22.72
2018-06-18T07:36:56.244Z,22.40
2018-06-18T07:39:33.491Z,21.45
2018-06-18T07:42:09.833Z,21.76
2018-06-18T07:44:47.072Z,22.15
2018-06-18T07:47:22.871Z,22.55
2018-06-18T07:49:59.408Z,22.70
2018-06-18T07:52:36.136Z,22.39
2018-06-18T07:55:13.042Z,23.08
2018-06-18T07:57:48.980Z,23.19
2018-06-18T08:00:25.576Z,23.04
2018-06-18T08:03:02.125Z,23.49
2018-06-18T08:05:39.620Z,24.71
2018-06-18T08:08:16.287Z,25.39
2018-06-18T08:10:52.974Z,24.71
2018-06-18T08:13:29.474Z,24.66
2018-06-18T08:16:05.663Z,23.34
2018-06-18T08:18:41.226Z,24.05
2018-06-18T08:21:17.056Z,23.49
2018-06-18T08:23:52.622Z,23.27
2018-06-18T08:26:28.362Z,23.39
2018-06-18T08:29:04.459Z,23.34
2018-06-18T08:31:40.436Z,23.34
2018-06-18T08:34:10.786Z,23.68
2018-06-18T08:36:41.143Z,23.54
2018-06-18T08:39:12.467Z,23.65
2018-06-18T08:41:44.415Z,24.17
2018-06-18T08:44:20.792Z,23.85
2018-06-18T08:46:51.368Z,24.23
2018-06-18T08:49:21.760Z,24.08
2018-06-18T08:51:58.024Z,23.54
2018-06-18T08:54:34.291Z,23.30
2018-06-18T08:57:16.939Z,22.96
2018-06-18T08:59:53.968Z,23.15
2018-06-18T09:02:29.163Z,23.86
2018-06-18T09:05:06.230Z,23.45
2018-06-18T09:07:42.701Z,22.75
2018-06-18T09:10:18.776Z,22.96
2018-06-18T09:12:50.732Z,24.31
2018-06-18T09:15:21.513Z,25.60
2018-06-18T09:17:51.957Z,25.88
2018-06-18T09:20:27.510Z,26.30
2018-06-18T09:23:05.095Z,25.25
2018-06-18T09:25:36.906Z,26.35
2018-06-18T09:28:07.878Z,26.19
2018-06-18T09:30:38.415Z,26.18
2018-06-18T09:33:10.421Z,26.82
2018-06-18T09:35:41.145Z,27.22
2018-06-18T09:38:11.585Z,28.44
2018-06-18T09:40:41.981Z,28.17
2018-06-18T09:43:13.474Z,25.72
2018-06-18T09:45:43.970Z,25.31
2018-06-18T09:48:19.689Z,27.92
2018-06-18T09:51:00.280Z,28.30
2018-06-18T09:53:35.699Z,27.53
2018-06-18T09:56:11.971Z,27.19
2018-06-18T09:58:48.423Z,27.33
2018-06-18T10:04:36.451Z,25.87
2018-06-18T10:07:07.570Z,27.13
2018-06-18T10:09:38.795Z,27.90
2018-06-18T10:12:11.420Z,28.01
2018-06-18T10:14:42.421Z,25.67
2018-06-18T10:17:13.128Z,25.90
2018-06-18T10:19:44.748Z,25.72
2018-06-18T10:22:20.602Z,24.91
2018-06-18T10:24:56.754Z,24.85
2018-06-18T10:27:28.931Z,24.34
2018-06-18T10:29:59.690Z,25.24
2018-06-18T10:32:36.307Z,25.98
2018-06-18T10:35:11.926Z,27.06
2018-06-18T10:37:49.792Z,27.58
2018-06-18T10:40:30.476Z,27.86
2018-06-18T10:43:06.270Z,29.53
2018-06-18T10:45:37.260Z,28.14
2018-06-18T10:48:08.012Z,27.79
2018-06-18T10:50:40.797Z,29.82
2018-06-18T10:53:11.214Z,29.36
2018-06-18T10:55:41.533Z,30.24
2018-06-18T10:58:14.050Z,28.99
2018-06-18T11:00:47.040Z,30.78
2018-06-18T11:03:18.600Z,31.55
2018-06-18T11:05:54.215Z,32.93
2018-06-18T11:08:24.927Z,32.99
2018-06-18T11:10:55.539Z,30.68
2018-06-18T11:13:27.882Z,29.91
2018-06-18T11:15:58.322Z,30.29
2018-06-18T11:18:35.344Z,31.67
2018-06-18T11:21:11.248Z,32.26
2018-06-18T11:23:49.091Z,33.34
2018-06-18T11:26:25.894Z,32.35
2018-06-18T11:29:02.551Z,30.73
2018-06-18T11:31:33.303Z,30.73
2018-06-18T11:34:09.435Z,30.03
2018-06-18T11:36:40.099Z,33.20
2018-06-18T11:39:12.566Z,31.20
2018-06-18T11:41:45.165Z,32.94
2018-06-18T11:44:15.893Z,33.95
2018-06-18T11:46:47.455Z,34.49
2018-06-18T11:49:18.507Z,29.87
2018-06-18T11:51:49.370Z,29.71
2018-06-18T11:54:23.503Z,29.42
2018-06-18T11:56:55.829Z,30.77
2018-06-18T11:59:31.832Z,30.53
2018-06-18T12:02:07.655Z,31.42
2018-06-18T12:04:43.153Z,28.27
2018-06-18T12:07:19.806Z,27.32
2018-06-18T12:09:52.480Z,27.30
2018-06-18T12:12:22.905Z,31.83
2018-06-18T12:14:54.972Z,35.78
2018-06-18T12:17:25.916Z,32.76
2018-06-18T12:19:58.313Z,31.36
2018-06-18T12:22:28.937Z,32.38
2018-06-18T12:24:59.900Z,35.17
2018-06-18T12:27:33.792Z,36.69
2018-06-18T12:30:05.857Z,37.60
2018-06-18T12:32:36.563Z,37.96
2018-06-18T12:35:09.977Z,36.30
2018-06-18T12:37:40.720Z,36.78
2018-06-18T12:40:13.113Z,38.31
2018-06-18T12:42:43.661Z,38.48
2018-06-18T12:45:26.800Z,36.36
2018-06-18T12:48:09.423Z,34.59
2018-06-18T12:50:50.873Z,29.16
2018-06-18T12:53:33.683Z,27.34
2018-06-18T12:56:15.600Z,26.40
2018-06-18T12:58:52.041Z,26.28
2018-06-18T13:01:31.120Z,30.08
2018-06-18T13:04:08.588Z,30.64
2018-06-18T13:06:45.817Z,32.90
2018-06-18T13:09:22.875Z,33.55
2018-06-18T13:11:59.453Z,31.56
2018-06-18T13:14:35.958Z,33.88
2018-06-18T13:17:12.215Z,33.98
2018-06-18T13:19:48.567Z,32.95
2018-06-18T13:22:24.977Z,32.39
2018-06-18T13:25:02.017Z,34.15
2018-06-18T13:27:43.359Z,35.33
2018-06-18T13:30:19.309Z,34.97
2018-06-18T13:35:44.264Z,36.55
2018-06-18T13:38:25.759Z,37.25
2018-06-18T13:41:07.635Z,39.84
2018-06-18T13:43:48.995Z,36.59
2018-06-18T13:46:30.915Z,35.43
2018-06-18T13:49:06.716Z,36.48
2018-06-18T13:51:44.533Z,31.44
2018-06-18T13:54:22.375Z,30.43
2018-06-18T13:57:07.255Z,34.89
2018-06-18T13:59:46.781Z,37.62
2018-06-18T14:02:23.834Z,38.10
2018-06-18T14:05:00.430Z,35.71
2018-06-18T14:07:36.056Z,34.22
2018-06-18T14:10:13.263Z,31.04
2018-06-18T14:12:48.926Z,28.88
2018-06-18T14:15:36.265Z,32.80
2018-06-18T14:18:43.903Z,32.81
2018-06-18T14:21:20.737Z,35.82
2018-06-18T14:23:57.417Z,38.09
2018-06-18T14:26:35.403Z,38.95
2018-06-18T14:29:17.148Z,33.76
2018-06-18T14:31:57.042Z,32.38
2018-06-18T14:40:53.982Z,28.81
2018-06-18T14:43:49.082Z,29.21
2018-06-18T14:46:28.140Z,29.31
2018-06-18T14:51:58.267Z,28.85
2018-06-18T14:54:35.510Z,30.28
2018-06-18T14:57:11.938Z,29.59
2018-06-18T14:59:54.279Z,29.67
2018-06-18T15:02:32.248Z,30.00
2018-06-18T15:05:09.595Z,26.94
2018-06-18T15:07:45.330Z,29.98
2018-06-18T15:10:22.056Z,31.97
2018-06-18T15:12:58.083Z,29.62
2018-06-18T15:15:34.915Z,28.50
2018-06-18T15:18:05.507Z,27.30
2018-06-18T15:20:36.960Z,26.94
2018-06-18T15:23:08.904Z,26.74
2018-06-18T15:25:45.820Z,26.91
2018-06-18T15:28:16.278Z,27.88
2018-06-18T15:30:46.737Z,31.04
2018-06-18T15:33:17.868Z,28.62
2018-06-18T15:35:49.751Z,26.64
2018-06-18T15:38:25.706Z,26.21
2018-06-18T15:41:08.533Z,25.80
2018-06-18T15:43:44.315Z,26.00
2018-06-18T15:46:20.436Z,26.33
2018-06-18T15:48:57.131Z,26.15
2018-06-18T15:51:33.144Z,26.72
2018-06-18T15:54:10.133Z,26.67
2018-06-18T15:56:42.845Z,29.57
2018-06-18T15:59:13.800Z,32.51
2018-06-18T16:01:49.640Z,29.46
2018-06-18T16:04:25.848Z,27.99
2018-06-18T16:07:01.968Z,27.84
2018-06-18T16:09:37.694Z,29.89
2018-06-18T16:12:14.389Z,28.06
2018-06-18T16:14:51.552Z,30.22
2018-06-18T16:17:27.612Z,35.48
2018-06-18T16:20:04.813Z,35.46
2018-06-18T16:22:40.690Z,30.46
2018-06-18T16:25:17.191Z,31.58
2018-06-18T16:27:53.649Z,30.35
2018-06-18T16:30:30.386Z,30.17
2018-06-18T16:33:06.096Z,30.82
2018-06-18T16:35:41.948Z,30.71
2018-06-18T16:38:17.677Z,28.84
2018-06-18T16:40:54.410Z,29.99
2018-06-18T16:43:30.497Z,30.88
2018-06-18T16:46:06.749Z,29.88
2018-06-18T16:48:42.756Z,30.75
2018-06-18T16:51:19.067Z,31.09
2018-06-18T16:53:56.962Z,31.73
2018-06-18T16:56:32.576Z,31.35
2018-06-18T16:59:13.376Z,30.68
2018-06-18T17:01:48.942Z,28.98
2018-06-18T17:04:24.370Z,30.19
2018-06-18T17:07:02.390Z,29.16
2018-06-18T17:09:37.988Z,29.05
2018-06-18T17:12:14.702Z,27.80
2018-06-18T17:14:51.531Z,25.69
2018-06-18T17:17:27.287Z,24.89
2018-06-18T17:20:05.410Z,24.37
2018-06-18T17:22:42.175Z,23.55
2018-06-18T17:25:19.400Z,23.52
2018-06-18T17:27:55.442Z,23.56
2018-06-18T17:30:32.737Z,23.64
2018-06-18T17:33:08.963Z,23.86
2018-06-18T17:35:44.631Z,23.64
2018-06-18T17:38:20.629Z,23.35
2018-06-18T17:40:56.220Z,23.17
2018-06-18T17:43:31.746Z,23.06
2018-06-18T17:46:09.376Z,22.98
2018-06-18T17:48:46.003Z,22.81
2018-06-18T17:51:22.758Z,22.74
2018-06-18T17:53:58.630Z,22.69
2018-06-18T17:56:35.123Z,22.76
2018-06-18T17:59:12.024Z,22.88
2018-06-18T18:01:49.034Z,22.97
2018-06-18T18:04:24.478Z,22.92
2018-06-18T18:07:00.249Z,22.98
2018-06-18T18:09:36.345Z,23.11
2018-06-18T18:12:13.099Z,23.05
2018-06-18T18:14:49.257Z,22.98
2018-06-18T18:17:26.212Z,22.87
2018-06-18T18:20:03.408Z,22.78
2018-06-18T18:22:40.426Z,22.81
2018-06-18T18:25:17.220Z,22.85
2018-06-18T18:27:53.815Z,22.96
2018-06-18T18:30:29.793Z,22.82
2018-06-18T18:33:06.601Z,22.80
2018-06-18T18:35:42.081Z,22.72
2018-06-18T18:38:19.439Z,22.68
2018-06-18T18:40:56.296Z,22.51
2018-06-18T18:43:32.597Z,22.45
2018-06-18T18:46:08.963Z,22.20
2018-06-18T18:48:46.852Z,22.05
2018-06-18T18:51:22.854Z,21.81
2018-06-18T18:53:59.287Z,21.58
2018-06-18T18:59:23.499Z,21.41
2018-06-18T19:02:00.961Z,21.14
2018-06-18T19:04:45.186Z,20.99
2018-06-18T19:07:33.071Z,20.98
2018-06-18T19:10:26.506Z,20.88
2018-06-18T19:13:06.751Z,20.67
2018-06-18T19:15:44.450Z,20.64
2018-06-18T19:18:20.728Z,20.66
2018-06-18T19:21:09.471Z,20.54
2018-06-18T19:23:45.172Z,20.55
2018-06-18T19:26:21.726Z,20.43
2018-06-18T19:28:57.647Z,20.41
2018-06-18T19:31:33.592Z,20.40
2018-06-18T19:34:12.629Z,20.27
2018-06-18T19:36:51.783Z,20.14
2018-06-18T19:39:33.616Z,20.02
2018-06-18T19:42:11.346Z,19.98
2018-06-18T19:44:49.626Z,19.85
2018-06-18T19:47:59.317Z,19.72
2018-06-18T19:50:43.712Z,19.57
2018-06-18T19:53:20.187Z,19.52
2018-06-18T19:55:56.386Z,19.47
2018-06-18T19:58:34.311Z,19.34
2018-06-18T20:01:12.694Z,19.27
2018-06-18T20:03:51.333Z,19.24
2018-06-18T20:06:29.577Z,19.16
2018-06-18T20:09:12.584Z,19.11
2018-06-18T20:11:49.682Z,19.04
2018-06-18T20:14:27.014Z,19.04
2018-06-18T20:17:04.394Z,18.95
2018-06-18T20:19:40.796Z,18.87
2018-06-18T20:22:16.394Z,18.95
2018-06-18T20:24:52.367Z,18.91
2018-06-18T20:27:28.274Z,18.77
2018-06-18T20:30:05.929Z,18.93
2018-06-18T20:32:41.858Z,18.87
2018-06-18T20:35:24.788Z,18.75
2018-06-18T20:38:01.976Z,18.81
2018-06-18T20:40:39.871Z,18.74
2018-06-18T20:43:17.729Z,18.73
2018-06-18T20:45:56.185Z,18.81
2018-06-18T20:48:32.459Z,18.38
2018-06-18T20:51:08.362Z,17.98
2018-06-18T20:53:45.116Z,17.80
2018-06-18T20:56:25.258Z,17.56
2018-06-18T20:59:02.794Z,17.31
2018-06-18T21:01:38.916Z,17.26
2018-06-18T21:04:15.598Z,17.35
2018-06-18T21:06:51.340Z,17.50
2018-06-18T21:09:28.277Z,17.62
2018-06-18T21:12:04.252Z,17.52
2018-06-18T21:14:39.996Z,17.88
2018-06-18T21:17:17.100Z,17.74
2018-06-18T21:19:53.585Z,17.67
2018-06-18T21:22:30.731Z,17.63
2018-06-18T21:25:07.604Z,17.52
2018-06-18T21:27:44.147Z,17.48
2018-06-18T21:30:20.554Z,17.35
2018-06-18T21:32:56.631Z,17.16
2018-06-18T21:35:32.980Z,16.76
2018-06-18T21:38:09.357Z,16.61
2018-06-18T21:40:46.220Z,16.54
2018-06-18T21:43:22.653Z,16.50
2018-06-18T21:46:00.415Z,16.55
2018-06-18T21:48:36.634Z,16.70
2018-06-18T21:51:12.463Z,16.72
2018-06-18T21:53:48.852Z,16.63
2018-06-18T21:56:24.466Z,16.64
2018-06-18T21:59:01.130Z,16.68
2018-06-18T22:01:44.637Z,16.57
2018-06-18T22:04:22.830Z,16.48
2018-06-18T22:06:58.853Z,16.45
2018-06-18T22:09:35.183Z,16.41
2018-06-18T22:12:12.750Z,16.33
2018-06-18T22:14:49.208Z,16.29
2018-06-18T22:17:25.236Z,16.31
2018-06-18T22:20:01.456Z,16.13
2018-06-18T22:22:37.519Z,16.08
2018-06-18T22:25:13.629Z,16.13
2018-06-18T22:27:50.633Z,15.98
2018-06-18T22:30:27.393Z,15.94
2018-06-18T22:33:03.092Z,16.02
2018-06-18T22:35:38.730Z,15.92
2018-06-18T22:38:15.708Z,15.77
2018-06-18T22:40:51.734Z,15.72
2018-06-18T22:43:27.450Z,15.62
2018-06-18T22:46:05.138Z,15.69
2018-06-18T22:48:41.577Z,15.64
2018-06-18T22:51:18.774Z,15.71
2018-06-18T22:53:55.187Z,15.63
2018-06-18T22:56:30.783Z,15.61
2018-06-18T22:59:06.516Z,15.42
2018-06-18T23:01:42.993Z,15.38
2018-06-18T23:04:18.640Z,15.27
2018-06-18T23:06:54.744Z,15.15
2018-06-18T23:09:30.630Z,15.01
2018-06-18T23:12:07.095Z,14.94
2018-06-18T23:14:43.231Z,14.94
2018-06-18T23:17:19.273Z,15.11
2018-06-18T23:19:55.562Z,15.27
2018-06-18T23:22:31.255Z,15.17
2018-06-18T23:25:07.512Z,15.10
2018-06-18T23:27:43.189Z,15.07
2018-06-18T23:30:19.039Z,15.08
2018-06-18T23:32:54.781Z,15.09
2018-06-18T23:35:31.415Z,14.89
2018-06-18T23:38:08.009Z,14.84
2018-06-18T23:40:44.457Z,14.79
2018-06-18T23:43:21.829Z,14.65
2018-06-18T23:45:57.916Z,14.55
2018-06-18T23:48:34.340Z,14.54
2018-06-18T23:51:10.780Z,14.49
2018-06-18T23:53:46.413Z,14.40
2018-06-18T23:56:22.256Z,14.38
2018-06-18T23:58:58.669Z,14.57
